createdAt,value
2022-09-24T05:01:25.646Z,3.75
2022-09-24T05:03:52.248Z,3.60
2022-09-24T05:08:45.452Z,3.28
2022-09-24T05:11:13.162Z,3.70
2022-09-24T05:13:39.684Z,3.40
2022-09-24T05:16:06.464Z,3.13
2022-09-24T05:18:33.027Z,3.08
2022-09-24T05:20:59.637Z,3.90
2022-09-24T05:26:10.954Z,4.53
2022-09-24T05:28:38.281Z,3.88
2022-09-24T05:31:04.917Z,4.45
2022-09-24T05:33:31.564Z,3.90
2022-09-24T05:35:58.154Z,4.07
2022-09-24T05:40:51.321Z,2.60
2022-09-24T05:43:21.582Z,2.88
2022-09-24T05:45:50.180Z,3.28
2022-09-24T05:48:16.976Z,3.03
2022-09-24T05:50:43.586Z,7.20
2022-09-24T05:55:36.982Z,2.70
2022-09-24T05:58:09.378Z,5.55
2022-09-24T06:00:36.392Z,8.45
2022-09-24T06:03:11.068Z,7.70
2022-09-24T06:05:37.644Z,11.10
2022-09-24T06:10:31.656Z,7.83
2022-09-24T06:12:58.617Z,11.20
2022-09-24T06:15:27.268Z,6.20
2022-09-24T06:17:54.931Z,6.43
2022-09-24T06:20:22.424Z,8.02
2022-09-24T06:22:49.356Z,6.72
2022-09-24T06:25:15.999Z,6.50
2022-09-24T06:27:42.532Z,10.23
2022-09-24T06:32:35.691Z,3.65
2022-09-24T06:35:02.231Z,4.35
2022-09-24T06:37:28.707Z,4.80
2022-09-24T06:39:55.408Z,4.15
2022-09-24T06:42:21.942Z,6.00
2022-09-24T06:47:15.080Z,3.97
2022-09-24T06:52:08.341Z,3.25
2022-09-24T06:57:01.599Z,3.28
2022-09-24T06:59:28.505Z,2.97
2022-09-24T07:01:55.093Z,2.72
2022-09-24T07:04:21.705Z,3.35
2022-09-24T07:07:06.949Z,3.42
2022-09-24T07:09:33.717Z,3.53
2022-09-24T07:12:04.824Z,3.83
2022-09-24T07:14:31.310Z,4.72
2022-09-24T07:16:57.849Z,4.05
2022-09-24T07:19:24.309Z,4.05
2022-09-24T07:21:50.897Z,5.50
2022-09-24T07:26:43.831Z,3.72
2022-09-24T07:29:10.377Z,3.88
2022-09-24T07:34:07.263Z,5.57
2022-09-24T07:36:33.776Z,4.45
2022-09-24T07:39:01.502Z,4.78
2022-09-24T07:41:28.013Z,3.72
2022-09-24T07:43:56.173Z,4.00
2022-09-24T07:46:23.934Z,3.67
2022-09-24T07:48:54.341Z,3.67
2022-09-24T07:51:20.830Z,3.60
2022-09-24T07:53:47.375Z,4.43
2022-09-24T07:58:40.490Z,4.15
2022-09-24T08:01:07.251Z,4.35
2022-09-24T08:03:33.851Z,4.15
2022-09-24T08:08:28.567Z,3.83
2022-09-24T08:13:25.366Z,4.38
2022-09-24T08:16:00.645Z,5.32
2022-09-24T08:18:29.410Z,3.83
2022-09-24T08:20:55.926Z,3.85
2022-09-24T08:25:49.131Z,4.20
2022-09-24T08:28:17.202Z,3.85
2022-09-24T08:30:44.277Z,4.63
2022-09-24T08:33:10.854Z,4.85
2022-09-24T08:38:07.094Z,3.72
2022-09-24T08:40:39.693Z,3.70
2022-09-24T08:43:26.069Z,3.40
2022-09-24T08:46:16.237Z,3.50
2022-09-24T08:48:49.302Z,4.18
2022-09-24T08:51:19.237Z,4.32
2022-09-24T08:53:55.056Z,4.30
2022-09-24T08:56:27.246Z,3.88
2022-09-24T08:58:59.858Z,4.65
2022-09-24T09:01:41.294Z,4.50
2022-09-24T09:04:26.181Z,6.03
2022-09-24T09:07:08.032Z,4.55
2022-09-24T09:09:54.134Z,4.00
2022-09-24T09:12:40.816Z,3.65
2022-09-24T09:15:13.320Z,3.88
2022-09-24T09:17:47.286Z,3.15
2022-09-24T09:20:21.725Z,3.47
2022-09-24T09:22:51.311Z,4.10
2022-09-24T09:25:24.706Z,3.65
2022-09-24T09:28:05.271Z,3.78
2022-09-24T09:30:43.693Z,3.78
2022-09-24T09:33:20.725Z,3.75
2022-09-24T09:36:15.041Z,3.72
2022-09-24T09:38:58.243Z,3.75
2022-09-24T09:42:02.636Z,3.65
2022-09-24T09:44:30.918Z,3.05
2022-09-24T09:47:07.172Z,3.78
2022-09-24T09:49:38.631Z,4.40
2022-09-24T09:52:15.297Z,3.78
2022-09-24T09:54:42.127Z,4.00
2022-09-24T09:57:18.200Z,3.78
2022-09-24T09:59:53.625Z,3.67
2022-09-24T10:02:35.471Z,4.32
2022-09-24T10:05:04.293Z,4.68
2022-09-24T10:07:31.789Z,4.85
2022-09-24T10:10:26.137Z,4.00
2022-09-24T10:13:13.820Z,4.57
2022-09-24T10:15:56.710Z,4.30
2022-09-24T10:18:36.238Z,5.43
2022-09-24T10:21:12.076Z,5.38
2022-09-24T10:23:49.769Z,4.72
2022-09-24T10:26:16.465Z,4.47
2022-09-24T10:29:08.041Z,6.65
2022-09-24T10:31:37.907Z,4.80
2022-09-24T10:34:18.347Z,5.70
2022-09-24T10:37:05.036Z,7.78
2022-09-24T10:39:33.870Z,7.03
2022-09-24T10:44:35.992Z,6.30
2022-09-24T10:47:04.643Z,5.40
2022-09-24T10:49:49.221Z,6.25
2022-09-24T10:52:52.713Z,6.10
2022-09-24T10:55:55.648Z,7.53
2022-09-24T10:58:28.086Z,6.00
2022-09-24T11:01:19.442Z,6.47
2022-09-24T11:04:10.537Z,7.15
2022-09-24T11:06:58.193Z,6.88
2022-09-24T11:09:43.945Z,6.47
2022-09-24T11:12:39.826Z,6.97
2022-09-24T11:15:21.983Z,6.85
2022-09-24T11:18:11.485Z,7.80
2022-09-24T11:20:42.005Z,7.63
2022-09-24T11:23:20.748Z,6.55
2022-09-24T11:25:47.270Z,7.30
2022-09-24T11:31:05.110Z,5.75
2022-09-24T11:33:34.700Z,7.95
2022-09-24T11:36:10.298Z,6.65
2022-09-24T11:39:01.393Z,7.13
2022-09-24T11:41:49.830Z,6.13
2022-09-24T11:44:27.187Z,6.25
2022-09-24T11:47:32.921Z,6.75
2022-09-24T11:50:15.615Z,5.13
2022-09-24T11:52:48.090Z,6.00
2022-09-24T11:55:31.784Z,5.95
2022-09-24T11:58:18.058Z,4.78
2022-09-24T12:00:57.513Z,5.22
2022-09-24T12:03:35.147Z,5.03
2022-09-24T12:06:10.263Z,4.32
2022-09-24T12:08:44.233Z,4.40
2022-09-24T12:11:18.768Z,5.38
2022-09-24T12:13:52.322Z,5.13
2022-09-24T12:16:24.283Z,4.50
2022-09-24T12:19:24.131Z,5.32
2022-09-24T12:21:53.048Z,5.72
2022-09-24T12:24:52.733Z,5.88
2022-09-24T12:27:38.749Z,5.63
2022-09-24T12:30:40.200Z,6.00
2022-09-24T12:33:09.436Z,6.93
2022-09-24T12:35:42.730Z,6.10
2022-09-24T12:38:21.015Z,5.35
2022-09-24T12:41:11.996Z,5.50
2022-09-24T12:43:53.743Z,6.43
2022-09-24T12:46:24.763Z,5.20
2022-09-24T12:48:54.333Z,6.13
2022-09-24T12:51:22.726Z,4.47
2022-09-24T12:54:05.831Z,4.50
2022-09-24T12:56:32.706Z,5.10
2022-09-24T12:58:59.246Z,4.55
2022-09-24T13:04:13.957Z,4.37
2022-09-24T13:06:41.549Z,4.70
2022-09-24T13:09:44.359Z,5.35
2022-09-24T13:12:14.468Z,4.78
2022-09-24T13:14:46.986Z,4.18
2022-09-24T13:17:15.842Z,5.28
2022-09-24T13:19:44.998Z,5.47
2022-09-24T13:22:23.085Z,5.15
2022-09-24T13:24:52.801Z,4.88
2022-09-24T13:27:37.841Z,5.63
2022-09-24T13:30:43.100Z,4.88
2022-09-24T13:33:12.662Z,4.57
2022-09-24T13:35:48.162Z,5.10
2022-09-24T13:38:14.906Z,5.13
2022-09-24T13:40:48.675Z,5.75
2022-09-24T13:43:25.314Z,5.45
2022-09-24T13:45:52.752Z,5.22
2022-09-24T13:48:33.527Z,5.03
2022-09-24T13:51:03.388Z,5.60
2022-09-24T13:53:32.342Z,5.32
2022-09-24T13:56:02.372Z,5.43
2022-09-24T13:58:38.783Z,5.68
2022-09-24T14:01:13.217Z,5.32
2022-09-24T14:03:41.364Z,5.57
2022-09-24T14:06:17.002Z,5.82
2022-09-24T14:08:46.318Z,7.35
2022-09-24T14:11:21.807Z,5.90
2022-09-24T14:13:48.390Z,5.38
2022-09-24T14:16:18.608Z,6.85
2022-09-24T14:18:45.977Z,5.60
2022-09-24T14:21:24.623Z,5.57
2022-09-24T14:23:57.290Z,5.72
2022-09-24T14:26:26.400Z,4.97
2022-09-24T14:28:54.199Z,5.50
2022-09-24T14:31:20.916Z,5.43
2022-09-24T14:33:47.575Z,6.07
2022-09-24T14:36:15.147Z,5.20
2022-09-24T14:38:53.902Z,7.13
2022-09-24T14:41:25.032Z,5.65
2022-09-24T14:43:56.287Z,6.03
2022-09-24T14:46:32.758Z,7.93
2022-09-24T14:49:18.814Z,5.47
2022-09-24T14:51:59.721Z,5.90
2022-09-24T14:54:36.952Z,5.40
2022-09-24T14:57:09.800Z,4.78
2022-09-24T14:59:38.062Z,5.68
2022-09-24T15:02:24.962Z,6.55
2022-09-24T15:04:55.466Z,7.82
2022-09-24T15:07:26.134Z,6.07
2022-09-24T15:10:01.105Z,5.50
2022-09-24T15:12:31.601Z,5.30
2022-09-24T15:15:04.117Z,6.03
2022-09-24T15:17:33.164Z,5.22
2022-09-24T15:20:00.408Z,6.00
2022-09-24T15:22:28.933Z,6.13
2022-09-24T15:25:01.856Z,5.00
2022-09-24T15:27:30.128Z,6.75
2022-09-24T15:29:59.644Z,7.55
2022-09-24T15:32:31.695Z,6.40
2022-09-24T15:34:58.364Z,6.93
2022-09-24T15:37:27.073Z,6.45
2022-09-24T15:39:57.508Z,5.60
2022-09-24T15:42:26.634Z,6.85
2022-09-24T15:44:54.744Z,6.90
2022-09-24T15:47:21.489Z,7.55
2022-09-24T15:49:48.090Z,7.72
2022-09-24T15:52:25.427Z,6.63
2022-09-24T15:54:53.237Z,6.22
2022-09-24T15:57:19.740Z,5.38
2022-09-24T16:02:29.488Z,5.32
2022-09-24T16:05:02.709Z,4.80
2022-09-24T16:07:30.269Z,5.88
2022-09-24T16:12:28.160Z,5.43
2022-09-24T16:14:59.133Z,5.13
2022-09-24T16:17:29.832Z,4.50
2022-09-24T16:19:56.381Z,5.68
2022-09-24T16:24:49.373Z,5.13
2022-09-24T16:29:42.385Z,8.60
2022-09-24T16:34:35.364Z,6.97
2022-09-24T16:39:28.421Z,7.30
2022-09-24T16:44:21.422Z,6.43
2022-09-24T16:49:14.523Z,8.20
2022-09-24T16:54:07.700Z,8.35
2022-09-24T16:56:34.642Z,10.55
2022-09-24T16:59:01.153Z,9.40
2022-09-24T17:03:56.213Z,7.03
2022-09-24T17:06:29.150Z,8.63
2022-09-24T17:09:19.108Z,7.70
2022-09-24T17:11:49.389Z,8.40
2022-09-24T17:14:17.692Z,7.63
2022-09-24T17:16:44.282Z,9.80
2022-09-24T17:21:40.859Z,10.68
2022-09-24T17:24:07.962Z,7.82
2022-09-24T17:26:34.748Z,8.52
2022-09-24T17:29:01.571Z,8.32
2022-09-24T17:31:28.544Z,10.30
2022-09-24T17:33:56.570Z,9.32
2022-09-24T17:36:23.900Z,9.05
2022-09-24T17:38:51.963Z,7.50
2022-09-24T17:41:19.307Z,8.88
2022-09-24T17:43:45.795Z,8.70
2022-09-24T17:46:18.057Z,8.30
2022-09-24T17:48:46.164Z,7.35
2022-09-24T17:51:22.880Z,7.82
2022-09-24T17:53:51.704Z,7.13
2022-09-24T17:56:19.229Z,5.93
2022-09-24T17:58:49.947Z,6.65
2022-09-24T18:01:25.257Z,6.95
2022-09-24T18:03:57.831Z,7.47
2022-09-24T18:06:29.396Z,8.02
2022-09-24T18:09:00.029Z,7.72
2022-09-24T18:11:31.537Z,8.63
2022-09-24T18:14:01.392Z,8.73
2022-09-24T18:16:31.183Z,6.93
2022-09-24T18:19:02.134Z,6.97
2022-09-24T18:21:29.600Z,6.78
2022-09-24T18:23:58.120Z,7.20
2022-09-24T18:26:27.317Z,7.95
2022-09-24T18:29:01.576Z,8.68
2022-09-24T18:31:29.613Z,9.10
2022-09-24T18:34:06.199Z,8.43
2022-09-24T18:36:38.615Z,8.85
2022-09-24T18:39:06.959Z,8.30
2022-09-24T18:41:34.808Z,8.38
2022-09-24T18:44:01.857Z,7.43
2022-09-24T18:46:30.555Z,8.10
2022-09-24T18:48:58.704Z,8.15
2022-09-24T18:51:28.340Z,8.55
2022-09-24T18:53:57.656Z,7.57
2022-09-24T18:56:24.612Z,18.92
2022-09-24T18:59:05.906Z,24.48
2022-09-24T19:01:35.422Z,12.30
2022-09-24T19:04:02.258Z,9.88
2022-09-24T19:06:30.598Z,9.85
2022-09-24T19:08:57.277Z,9.20
2022-09-24T19:11:23.925Z,9.82
2022-09-24T19:18:47.416Z,8.43
2022-09-24T19:21:15.664Z,8.60
2022-09-24T19:23:47.819Z,7.88
2022-09-24T19:26:20.600Z,8.43
2022-09-24T19:28:50.965Z,8.73
2022-09-24T19:31:20.252Z,8.18
2022-09-24T19:33:47.108Z,9.35
2022-09-24T19:36:13.845Z,8.55
2022-09-24T19:41:13.580Z,8.27
2022-09-24T19:43:42.879Z,9.02
2022-09-24T19:46:12.086Z,7.50
2022-09-24T19:48:40.435Z,8.13
2022-09-24T19:51:12.465Z,7.97
2022-09-24T19:53:39.143Z,7.93
2022-09-24T19:56:07.322Z,7.38
2022-09-24T19:58:34.479Z,8.70
2022-09-24T20:01:06.592Z,8.20
2022-09-24T20:03:34.819Z,7.60
2022-09-24T20:06:07.648Z,8.52
2022-09-24T20:08:34.206Z,8.82
2022-09-24T20:13:32.356Z,9.23
2022-09-24T20:16:01.762Z,9.90
2022-09-24T20:18:28.757Z,10.55
2022-09-24T20:20:55.536Z,9.20
2022-09-24T20:23:23.583Z,10.32
2022-09-24T20:26:13.516Z,13.63
2022-09-24T20:28:40.374Z,10.63
2022-09-24T20:31:11.411Z,8.82
2022-09-24T20:33:40.339Z,12.05
2022-09-24T20:36:15.192Z,11.98
2022-09-24T20:38:45.050Z,11.63
2022-09-24T20:41:17.600Z,10.02
2022-09-24T20:43:45.563Z,11.20
2022-09-24T20:46:32.373Z,11.30
2022-09-24T20:49:00.227Z,10.13
2022-09-24T20:51:33.709Z,9.85
2022-09-24T20:54:01.235Z,8.43
2022-09-24T20:56:30.643Z,10.32
2022-09-24T20:58:57.878Z,11.75
2022-09-24T21:01:25.031Z,9.75
2022-09-24T21:03:52.891Z,11.20
2022-09-24T21:06:23.072Z,11.32
2022-09-24T21:08:49.968Z,9.80
2022-09-24T21:11:22.692Z,10.32
2022-09-24T21:13:52.244Z,9.20
2022-09-24T21:16:24.429Z,10.90
2022-09-24T21:18:54.423Z,11.02
2022-09-24T21:21:24.150Z,9.85
2022-09-24T21:23:53.345Z,9.25
2022-09-24T21:26:31.168Z,10.07
2022-09-24T21:29:08.207Z,10.82
2022-09-24T21:31:35.980Z,10.32
2022-09-24T21:34:03.525Z,9.05
2022-09-24T21:36:32.397Z,9.23
2022-09-24T21:39:09.088Z,10.32
2022-09-24T21:41:40.290Z,8.80
2022-09-24T21:44:09.137Z,9.55
2022-09-24T21:46:35.856Z,9.50
2022-09-24T21:51:31.199Z,8.73
2022-09-24T21:54:01.141Z,8.85
2022-09-24T21:56:28.905Z,9.60
2022-09-24T21:58:55.910Z,9.40
2022-09-24T22:01:28.266Z,8.52
2022-09-24T22:03:56.808Z,9.13
2022-09-24T22:06:27.165Z,9.35
2022-09-24T22:08:56.090Z,9.25
2022-09-24T22:11:23.349Z,10.90
2022-09-24T22:13:49.819Z,9.43
2022-09-24T22:16:16.382Z,8.43
2022-09-24T22:21:12.391Z,7.97
2022-09-24T22:23:40.089Z,7.55
2022-09-24T22:26:09.066Z,7.93
2022-09-24T22:28:38.040Z,8.68
2022-09-24T22:31:11.081Z,8.95
2022-09-24T22:33:56.783Z,8.45
2022-09-24T22:36:23.447Z,8.55
2022-09-24T22:41:19.836Z,7.60
2022-09-24T22:43:46.375Z,8.48
2022-09-24T22:46:14.351Z,8.68
2022-09-24T22:48:40.881Z,9.43
2022-09-24T22:51:08.714Z,9.13
2022-09-24T22:53:36.987Z,8.73
2022-09-24T22:56:11.222Z,8.75
2022-09-24T22:58:41.313Z,8.95
2022-09-24T23:01:14.472Z,9.18
